Time;durP1;ratioP1;P1;durP2;ratioP2;P2;SDS_P1;SDS_P2;PMS_P1;PMS_P2;Temp;Humidity;BMP_temperature;BMP_pressure;BME280_temperature;BME280_humidity;BME280_pressure;Samples;Min_cycle;Max_cycle;Signal;HPM_P1;HPM_P2
2023/05/05 00:01:16;;;;;;;5.23;2.17;;;8.80;94.50;;;;;;5063720;28;20229;-91
2023/05/05 00:03:44;;;;;;;5.97;1.90;;;8.80;94.50;;;;;;5063004;28;20226;-91
2023/05/05 00:06:11;;;;;;;4.03;1.80;;;8.80;94.40;;;;;;5067003;28;20271;-90
2023/05/05 00:08:38;;;;;;;3.67;2.10;;;8.80;94.40;;;;;;5070335;28;20301;-90
2023/05/05 00:11:06;;;;;;;4.33;1.60;;;8.80;94.30;;;;;;5068310;28;20257;-90
2023/05/05 00:13:32;;;;;;;3.07;1.90;;;8.70;94.30;;;;;;5067585;28;20225;-90
2023/05/05 00:15:59;;;;;;;5.03;1.80;;;8.70;94.40;;;;;;5069267;28;20234;-91
2023/05/05 00:18:27;;;;;;;5.27;2.10;;;8.70;94.50;;;;;;5076115;28;20229;-90
2023/05/05 00:20:54;;;;;;;4.03;1.70;;;8.70;94.40;;;;;;5088343;28;20552;-90
2023/05/05 00:23:20;;;;;;;7.37;2.20;;;8.70;94.50;;;;;;5070804;28;20260;-90
2023/05/05 00:25:47;;;;;;;6.17;2.00;;;8.70;94.40;;;;;;5072196;28;20711;-90
2023/05/05 00:28:16;;;;;;;4.90;2.07;;;8.70;94.50;;;;;;5070541;28;20227;-92
2023/05/05 00:30:43;;;;;;;6.80;2.50;;;8.70;94.50;;;;;;5068476;28;20236;-90
2023/05/05 00:33:11;;;;;;;3.67;1.63;;;8.70;94.60;;;;;;5071139;28;20217;-91
2023/05/05 00:35:37;;;;;;;6.53;2.23;;;8.60;94.50;;;;;;5069340;28;20564;-90
2023/05/05 00:38:06;;;;;;;5.37;2.20;;;8.60;94.70;;;;;;5075172;28;20258;-91
2023/05/05 00:40:33;;;;;;;8.17;2.37;;;8.60;94.50;;;;;;5074167;28;20236;-91
2023/05/05 00:43:00;;;;;;;3.30;1.70;;;8.60;94.70;;;;;;5073370;28;20329;-89
2023/05/05 00:45:30;;;;;;;4.90;1.60;;;8.50;94.60;;;;;;5070678;28;20709;-91
2023/05/05 00:47:58;;;;;;;6.60;2.13;;;8.50;94.70;;;;;;5083069;28;20225;-89
2023/05/05 00:50:27;;;;;;;6.93;1.90;;;8.50;95.00;;;;;;5073038;28;20282;-91
2023/05/05 00:52:56;;;;;;;5.70;1.70;;;8.50;94.70;;;;;;5075521;28;20225;-91
2023/05/05 00:55:23;;;;;;;5.23;2.00;;;8.40;94.90;;;;;;5071431;28;20248;-90
2023/05/05 00:57:49;;;;;;;3.73;1.97;;;8.40;94.80;;;;;;5074966;28;20221;-90
2023/05/05 01:00:17;;;;;;;3.17;1.70;;;8.40;94.80;;;;;;5070414;28;20228;-90
2023/05/05 01:02:45;;;;;;;5.50;1.70;;;8.40;95.00;;;;;;5070615;28;20225;-90
2023/05/05 01:05:14;;;;;;;5.50;1.90;;;8.30;95.10;;;;;;5092065;28;20211;-90
2023/05/05 01:07:49;;;;;;;6.47;2.10;;;8.30;95.00;;;;;;5068365;28;20239;-91
2023/05/05 01:10:23;;;;;;;7.13;2.23;;;8.30;95.20;;;;;;5064238;28;20279;-90
2023/05/05 01:12:57;;;;;;;4.17;1.77;;;8.20;95.20;;;;;;5068792;28;20715;-89
2023/05/05 01:15:31;;;;;;;4.90;1.80;;;8.20;95.30;;;;;;5055156;28;21546;-90
2023/05/05 01:18:11;;;;;;;3.33;1.80;;;8.20;95.40;;;;;;5042518;28;20916;-89
2023/05/05 01:20:44;;;;;;;5.27;2.00;;;8.10;95.30;;;;;;5061266;28;20223;-90
2023/05/05 01:23:18;;;;;;;5.07;2.10;;;8.10;95.40;;;;;;5064426;28;20245;-90
2023/05/05 01:26:13;;;;;;;3.57;1.97;;;8.10;95.60;;;;;;5047248;28;20231;-90
2023/05/05 01:29:00;;;;;;;5.23;2.20;;;8.00;96.00;;;;;;5043593;28;20689;-90
2023/05/05 01:31:42;;;;;;;3.43;1.90;;;8.00;95.90;;;;;;5047373;28;20224;-90
2023/05/05 01:34:11;;;;;;;4.73;2.40;;;8.00;95.90;;;;;;5044387;28;20736;-90
2023/05/05 01:36:44;;;;;;;5.07;2.13;;;8.00;95.80;;;;;;5054462;28;20341;-91
2023/05/05 01:39:16;;;;;;;4.23;1.60;;;7.90;95.90;;;;;;5044192;28;20333;-91
2023/05/05 01:41:46;;;;;;;3.37;1.90;;;7.90;96.30;;;;;;5045332;28;20227;-91
2023/05/05 01:44:17;;;;;;;4.70;2.30;;;7.90;96.40;;;;;;5044545;28;20783;-90
2023/05/05 01:46:48;;;;;;;6.20;2.13;;;7.90;96.50;;;;;;5062257;28;20704;-91
2023/05/05 01:49:16;;;;;;;4.60;2.20;;;7.90;96.60;;;;;;5044842;28;20291;-90
2023/05/05 01:51:46;;;;;;;5.47;2.20;;;7.90;96.50;;;;;;5044976;28;20227;-91
2023/05/05 01:54:15;;;;;;;3.57;1.80;;;7.90;96.80;;;;;;5047807;28;20221;-92
2023/05/05 01:56:43;;;;;;;4.97;2.30;;;7.90;96.80;;;;;;5046404;28;20250;-89
2023/05/05 01:59:11;;;;;;;6.10;2.40;;;7.80;96.90;;;;;;5051897;28;21002;-91
2023/05/05 02:01:43;;;;;;;3.83;2.23;;;7.80;97.00;;;;;;5043323;28;20223;-90
2023/05/05 02:04:13;;;;;;;5.37;2.10;;;7.80;97.20;;;;;;5045150;28;20238;-90
2023/05/05 02:06:42;;;;;;;5.83;2.50;;;7.80;97.20;;;;;;5038744;28;20305;-90
2023/05/05 02:09:13;;;;;;;5.60;2.30;;;7.80;97.20;;;;;;5037434;28;20716;-90
2023/05/05 02:11:40;;;;;;;6.73;2.40;;;7.80;97.30;;;;;;5039670;28;20253;-90
2023/05/05 02:14:08;;;;;;;5.57;1.93;;;7.80;97.10;;;;;;5052125;28;20231;-90
2023/05/05 02:16:36;;;;;;;5.80;2.60;;;7.80;97.30;;;;;;5061036;28;20839;-90
2023/05/05 02:19:04;;;;;;;7.10;2.20;;;7.70;97.40;;;;;;5059665;28;20814;-92
2023/05/05 02:21:33;;;;;;;6.07;2.20;;;7.60;97.30;;;;;;5061974;28;20226;-91
2023/05/05 02:24:00;;;;;;;3.87;2.27;;;7.70;97.80;;;;;;5065632;28;20214;-90
2023/05/05 02:26:30;;;;;;;4.07;2.10;;;7.70;97.60;;;;;;5061568;28;20233;-90
2023/05/05 02:29:02;;;;;;;6.23;2.00;;;7.70;97.90;;;;;;5059632;28;20709;-90
2023/05/05 02:31:32;;;;;;;7.03;2.30;;;7.70;98.10;;;;;;5069125;28;20226;-90
2023/05/05 02:34:02;;;;;;;6.17;2.17;;;7.60;98.00;;;;;;5069515;28;20214;-89
2023/05/05 02:36:39;;;;;;;5.17;2.10;;;7.60;98.30;;;;;;5065469;28;20226;-90
2023/05/05 02:39:12;;;;;;;4.33;2.20;;;7.60;98.70;;;;;;5063219;28;20222;-90
2023/05/05 02:41:42;;;;;;;5.10;2.10;;;7.50;98.50;;;;;;5062489;28;20317;-90
2023/05/05 02:44:20;;;;;;;6.07;2.57;;;7.50;98.60;;;;;;5060764;28;20222;-90
2023/05/05 02:46:47;;;;;;;6.37;2.57;;;7.50;98.70;;;;;;5065512;28;20290;-90
2023/05/05 02:49:15;;;;;;;5.23;2.33;;;7.50;98.70;;;;;;5065215;28;20307;-90
2023/05/05 02:51:43;;;;;;;5.40;2.43;;;7.40;98.70;;;;;;5064478;28;20271;-89
2023/05/05 02:54:19;;;;;;;6.27;2.33;;;7.40;98.80;;;;;;5059217;28;20228;-91
2023/05/05 02:56:49;;;;;;;4.70;2.07;;;7.40;98.80;;;;;;5064195;28;20303;-89
2023/05/05 02:59:27;;;;;;;5.07;2.37;;;7.40;99.30;;;;;;5059530;28;20490;-89
2023/05/05 03:02:06;;;;;;;8.57;2.83;;;7.30;99.50;;;;;;5078478;28;20218;-90
2023/05/05 03:04:39;;;;;;;5.13;2.83;;;7.30;99.80;;;;;;5075126;28;20224;-91
2023/05/05 03:07:13;;;;;;;6.70;2.93;;;7.30;99.60;;;;;;5060598;28;20329;-90
2023/05/05 03:09:46;;;;;;;4.17;2.00;;;7.30;99.70;;;;;;5063634;28;20214;-91
2023/05/05 03:12:20;;;;;;;5.67;2.40;;;7.20;99.90;;;;;;5071442;28;20676;-90
2023/05/05 03:14:58;;;;;;;7.73;2.70;;;7.20;99.90;;;;;;5065517;28;20230;-89
2023/05/05 03:17:30;;;;;;;6.97;2.30;;;7.10;99.90;;;;;;5080699;28;20230;-90
2023/05/05 03:19:57;;;;;;;4.13;2.20;;;7.10;99.90;;;;;;5073816;28;20234;-90
2023/05/05 03:22:27;;;;;;;6.33;2.77;;;7.10;99.90;;;;;;5073359;28;20233;-90
2023/05/05 03:24:54;;;;;;;4.97;2.47;;;7.10;99.90;;;;;;5061338;28;20211;-90
2023/05/05 03:27:23;;;;;;;5.73;2.70;;;7.10;99.90;;;;;;5068030;28;20341;-91
2023/05/05 03:29:51;;;;;;;6.17;2.43;;;7.00;99.90;;;;;;5062206;28;20227;-90
2023/05/05 03:32:18;;;;;;;4.47;2.33;;;7.00;99.90;;;;;;5056998;28;20229;-91
2023/05/05 03:34:45;;;;;;;4.80;2.60;;;7.00;99.90;;;;;;5068272;28;20256;-91
2023/05/05 03:37:12;;;;;;;8.07;3.00;;;7.00;99.90;;;;;;5059491;28;20222;-90
2023/05/05 03:39:42;;;;;;;6.43;2.97;;;6.90;99.90;;;;;;5062207;28;20229;-91
2023/05/05 03:42:11;;;;;;;8.23;3.10;;;6.90;99.90;;;;;;5060936;28;20613;-91
2023/05/05 03:44:38;;;;;;;5.33;2.90;;;6.90;99.90;;;;;;5061682;28;20610;-92
2023/05/05 03:47:05;;;;;;;5.07;2.57;;;6.90;99.90;;;;;;5057294;28;20213;-92
2023/05/05 03:49:35;;;;;;;9.47;3.47;;;6.90;99.90;;;;;;5060317;28;20230;-92
2023/05/05 03:52:02;;;;;;;5.77;2.90;;;6.90;99.90;;;;;;5062479;28;20220;-91
2023/05/05 03:54:30;;;;;;;7.43;3.17;;;6.80;99.90;;;;;;5063067;28;20712;-92
2023/05/05 03:57:01;;;;;;;7.33;3.50;;;6.90;99.90;;;;;;5070861;28;20233;-92
2023/05/05 03:59:28;;;;;;;11.13;4.37;;;6.80;99.90;;;;;;5062903;28;21042;-91
2023/05/05 04:01:55;;;;;;;6.23;3.57;;;6.90;99.90;;;;;;5063144;28;20221;-91
2023/05/05 04:04:22;;;;;;;7.13;3.57;;;6.90;99.90;;;;;;5062075;28;20237;-91
2023/05/05 04:06:49;;;;;;;8.20;3.63;;;6.90;99.90;;;;;;5064202;28;20309;-91
2023/05/05 04:09:16;;;;;;;7.13;3.83;;;6.90;99.90;;;;;;5061866;28;20783;-91
2023/05/05 04:11:43;;;;;;;9.93;3.90;;;6.90;99.90;;;;;;5053539;28;20222;-90
2023/05/05 04:14:12;;;;;;;7.70;4.03;;;6.90;99.90;;;;;;5064589;28;20217;-90
2023/05/05 04:16:39;;;;;;;6.07;3.93;;;6.90;99.90;;;;;;5055896;28;20238;-93
2023/05/05 04:19:06;;;;;;;9.30;3.63;;;7.00;99.90;;;;;;5060291;28;20322;-91
2023/05/05 04:21:34;;;;;;;8.70;3.90;;;7.00;99.90;;;;;;5062399;28;20223;-90
2023/05/05 04:24:02;;;;;;;6.53;4.03;;;7.10;99.90;;;;;;5065211;28;20244;-88
2023/05/05 04:26:30;;;;;;;8.73;4.27;;;7.10;99.90;;;;;;5058276;28;20226;-89
2023/05/05 04:28:57;;;;;;;9.30;4.40;;;7.20;99.90;;;;;;5079625;28;20523;-89
2023/05/05 04:31:26;;;;;;;6.03;3.73;;;7.20;99.90;;;;;;5057722;28;20237;-89
2023/05/05 04:33:53;;;;;;;9.90;4.30;;;7.20;99.90;;;;;;5055466;28;20718;-88
2023/05/05 04:36:20;;;;;;;10.17;4.40;;;7.30;99.90;;;;;;5060863;28;20218;-88
2023/05/05 04:38:47;;;;;;;11.23;4.63;;;7.30;99.90;;;;;;5053105;28;20230;-90
2023/05/05 04:41:14;;;;;;;8.43;4.17;;;7.40;99.90;;;;;;5067882;28;20224;-88
2023/05/05 04:43:42;;;;;;;10.07;4.57;;;7.40;99.90;;;;;;5068202;28;20236;-87
2023/05/05 04:46:09;;;;;;;8.10;4.87;;;7.40;99.90;;;;;;5064865;28;20811;-88
2023/05/05 04:48:38;;;;;;;7.73;4.13;;;7.50;99.90;;;;;;5080563;28;20217;-89
2023/05/05 04:51:06;;;;;;;9.53;4.17;;;7.50;99.90;;;;;;5064805;28;20636;-89
2023/05/05 04:53:33;;;;;;;7.23;4.40;;;7.60;99.90;;;;;;5071868;28;20306;-90
2023/05/05 04:56:02;;;;;;;6.30;4.37;;;7.60;99.90;;;;;;5069003;28;20295;-90
2023/05/05 04:58:29;;;;;;;11.70;4.50;;;7.70;99.90;;;;;;5068948;28;20250;-90
2023/05/05 05:00:56;;;;;;;7.87;4.03;;;7.70;99.90;;;;;;5072277;28;20271;-91
2023/05/05 05:03:23;;;;;;;12.23;4.80;;;7.70;99.90;;;;;;5068986;28;20246;-90
2023/05/05 05:05:53;;;;;;;9.40;5.10;;;7.80;99.90;;;;;;5069078;28;20528;-89
2023/05/05 05:08:20;;;;;;;10.40;4.30;;;7.90;99.90;;;;;;5070404;28;20217;-91
2023/05/05 05:10:47;;;;;;;5.73;4.07;;;7.90;99.90;;;;;;5070313;28;20225;-92
2023/05/05 05:13:14;;;;;;;10.13;4.03;;;7.90;99.90;;;;;;5071437;28;20254;-91
2023/05/05 05:15:41;;;;;;;8.87;4.53;;;7.90;99.90;;;;;;5064116;28;20309;-91
2023/05/05 05:18:10;;;;;;;10.03;4.00;;;8.00;99.90;;;;;;5071552;28;20643;-91
2023/05/05 05:20:39;;;;;;;7.50;3.93;;;8.10;99.90;;;;;;5095074;28;20232;-91
2023/05/05 05:23:07;;;;;;;10.43;4.40;;;8.10;99.90;;;;;;5070194;28;20225;-92
2023/05/05 05:25:38;;;;;;;7.50;3.83;;;8.20;99.90;;;;;;5072224;28;20321;-92
2023/05/05 05:28:05;;;;;;;8.93;4.23;;;8.20;99.90;;;;;;5067126;28;20226;-92
2023/05/05 05:30:32;;;;;;;9.60;4.17;;;8.30;99.90;;;;;;5075209;28;20721;-89
2023/05/05 05:33:00;;;;;;;7.73;3.97;;;8.30;99.90;;;;;;5069880;28;20218;-90
2023/05/05 05:35:27;;;;;;;8.27;4.63;;;8.40;99.90;;;;;;5073400;28;20234;-90
2023/05/05 05:37:54;;;;;;;7.93;4.77;;;8.50;99.90;;;;;;5072045;28;20230;-90
2023/05/05 05:40:22;;;;;;;11.27;4.53;;;8.60;99.90;;;;;;5072916;28;20838;-91
2023/05/05 05:42:49;;;;;;;8.30;4.07;;;8.60;99.90;;;;;;5067103;28;20222;-90
2023/05/05 05:45:17;;;;;;;7.27;4.13;;;8.70;99.90;;;;;;5076906;28;20226;-91
2023/05/05 05:47:45;;;;;;;7.43;4.00;;;8.70;99.90;;;;;;5074062;28;20655;-90
2023/05/05 05:50:11;;;;;;;9.20;4.33;;;8.70;99.90;;;;;;5068662;28;20675;-90
2023/05/05 05:52:38;;;;;;;7.03;4.50;;;8.80;99.90;;;;;;5071577;28;20254;-91
2023/05/05 05:55:08;;;;;;;7.10;4.67;;;8.80;99.90;;;;;;5071103;28;20217;-90
2023/05/05 05:57:36;;;;;;;9.50;4.50;;;8.80;99.90;;;;;;5071162;28;20223;-91
2023/05/05 06:00:09;;;;;;;10.30;4.77;;;8.80;99.90;;;;;;5067657;28;20224;-92
2023/05/05 06:02:38;;;;;;;8.47;4.00;;;8.80;99.90;;;;;;5079506;28;20226;-92
2023/05/05 06:05:09;;;;;;;6.60;3.60;;;8.80;99.90;;;;;;5081382;28;20245;-91
2023/05/05 06:07:37;;;;;;;8.57;4.03;;;8.90;99.90;;;;;;5070491;28;20261;-91
2023/05/05 06:10:05;;;;;;;7.47;4.20;;;8.90;99.90;;;;;;5075740;28;20225;-92
2023/05/05 06:12:32;;;;;;;7.80;4.23;;;8.90;99.90;;;;;;5067702;28;20234;-91
2023/05/05 06:15:00;;;;;;;11.93;4.63;;;9.10;99.90;;;;;;5078554;28;20307;-91
2023/05/05 06:17:30;;;;;;;7.60;3.70;;;9.10;99.90;;;;;;5069830;28;20246;-91
2023/05/05 06:19:57;;;;;;;7.50;4.20;;;9.10;99.90;;;;;;5067027;28;20715;-92
2023/05/05 06:22:24;;;;;;;8.30;4.13;;;9.20;99.90;;;;;;5064980;28;20238;-91
2023/05/05 06:24:52;;;;;;;7.10;4.00;;;9.30;99.90;;;;;;5069528;28;20222;-92
2023/05/05 06:27:20;;;;;;;9.53;4.43;;;9.50;99.90;;;;;;5083095;28;20301;-93
2023/05/05 06:29:47;;;;;;;7.83;4.07;;;9.70;99.90;;;;;;5068350;28;20359;-93
2023/05/05 06:32:15;;;;;;;7.83;4.10;;;9.90;99.90;;;;;;5072146;28;20343;-92
2023/05/05 06:34:43;;;;;;;6.63;3.90;;;10.20;99.90;;;;;;5070989;28;20313;-93
2023/05/05 06:37:10;;;;;;;9.10;4.03;;;10.50;99.90;;;;;;5083500;28;20516;-92
2023/05/05 06:39:37;;;;;;;9.00;3.93;;;10.80;99.90;;;;;;5070784;28;20325;-92
2023/05/05 06:42:03;;;;;;;8.60;4.40;;;11.00;99.90;;;;;;5071764;28;20229;-91
2023/05/05 06:44:30;;;;;;;6.27;4.00;;;11.10;99.90;;;;;;5069419;28;20289;-92
2023/05/05 06:46:57;;;;;;;10.80;4.53;;;11.30;99.90;;;;;;5090463;28;20259;-93
2023/05/05 06:49:25;;;;;;;8.33;3.90;;;11.40;99.90;;;;;;5076158;28;20819;-91
2023/05/05 06:51:52;;;;;;;7.07;3.90;;;11.60;99.90;;;;;;5066609;28;20234;-92
2023/05/05 06:54:19;;;;;;;7.90;3.97;;;11.80;99.90;;;;;;5067878;28;20245;-93
2023/05/05 06:56:45;;;;;;;9.30;3.90;;;12.00;99.90;;;;;;5065154;28;20234;-93
2023/05/05 06:59:12;;;;;;;7.70;4.17;;;12.10;99.90;;;;;;5058609;28;20328;-93
2023/05/05 07:01:39;;;;;;;7.60;4.03;;;12.30;99.90;;;;;;5065141;28;20308;-92
2023/05/05 07:04:06;;;;;;;7.50;3.57;;;12.50;99.90;;;;;;5067203;28;20234;-91
2023/05/05 07:06:35;;;;;;;8.70;3.90;;;12.70;99.90;;;;;;5069918;28;20229;-91
2023/05/05 07:09:04;;;;;;;10.93;4.20;;;12.90;99.80;;;;;;5064174;28;20343;-91
2023/05/05 07:11:31;;;;;;;12.13;4.00;;;13.20;99.60;;;;;;5081310;28;20743;-91
2023/05/05 07:13:57;;;;;;;6.43;4.20;;;13.50;99.40;;;;;;5066262;28;20228;-92
2023/05/05 07:16:25;;;;;;;10.57;4.00;;;13.90;98.90;;;;;;5065208;28;20225;-91
2023/05/05 07:18:53;;;;;;;7.13;3.80;;;14.40;98.60;;;;;;5066890;28;20252;-91
2023/05/05 07:21:19;;;;;;;10.00;3.90;;;14.90;98.40;;;;;;5063383;28;20211;-92
2023/05/05 07:23:48;;;;;;;5.73;3.63;;;15.40;98.10;;;;;;5083353;28;20718;-90
2023/05/05 07:26:15;;;;;;;7.87;3.70;;;16.00;97.20;;;;;;5068435;28;20283;-92
2023/05/05 07:28:42;;;;;;;9.32;3.90;;;16.60;96.20;;;;;;5064529;28;20382;-92
2023/05/05 07:31:09;;;;;;;8.80;4.20;;;17.10;95.10;;;;;;5060394;28;20233;-92
2023/05/05 07:33:36;;;;;;;6.67;3.57;;;17.30;94.10;;;;;;5066746;28;20677;-92
2023/05/05 07:36:03;;;;;;;10.10;4.30;;;17.40;93.30;;;;;;5064399;28;20510;-91
2023/05/05 07:38:30;;;;;;;8.88;4.45;;;17.40;92.60;;;;;;5060419;28;20223;-92
2023/05/05 07:40:58;;;;;;;7.47;3.90;;;17.30;92.10;;;;;;5060266;28;20222;-91
2023/05/05 07:43:25;;;;;;;7.63;4.37;;;17.10;91.70;;;;;;5055762;28;20223;-92
2023/05/05 07:45:51;;;;;;;9.03;3.87;;;16.90;91.80;;;;;;5060067;28;20241;-92
2023/05/05 07:48:18;;;;;;;7.30;4.13;;;16.70;91.70;;;;;;5060358;28;20317;-92
2023/05/05 07:50:45;;;;;;;8.73;4.37;;;16.40;91.60;;;;;;5086862;28;20676;-90
2023/05/05 07:53:12;;;;;;;7.70;4.10;;;16.20;91.60;;;;;;5082626;28;20225;-91
2023/05/05 07:55:39;;;;;;;9.33;4.20;;;15.90;91.20;;;;;;5070604;28;20299;-91
2023/05/05 07:58:09;;;;;;;8.20;3.67;;;15.80;92.10;;;;;;5062009;28;20233;-91
2023/05/05 08:00:36;;;;;;;7.50;3.90;;;15.70;92.40;;;;;;5069199;28;20310;-90
2023/05/05 08:03:03;;;;;;;8.53;4.40;;;15.60;92.80;;;;;;5064456;28;20234;-92
2023/05/05 08:05:29;;;;;;;9.60;4.30;;;15.60;92.90;;;;;;5065341;28;20218;-91
2023/05/05 08:07:56;;;;;;;8.43;3.97;;;15.60;93.10;;;;;;5070670;28;20309;-92
2023/05/05 08:10:23;;;;;;;9.40;3.90;;;15.60;92.90;;;;;;5061695;28;20245;-91
2023/05/05 08:12:50;;;;;;;10.73;4.30;;;15.70;93.00;;;;;;5062626;28;20873;-91
2023/05/05 08:15:21;;;;;;;8.03;4.30;;;15.60;92.90;;;;;;5061102;28;20230;-91
2023/05/05 08:17:49;;;;;;;5.87;3.90;;;15.60;92.90;;;;;;5057819;28;20219;-93
2023/05/05 08:20:16;;;;;;;6.80;3.83;;;15.70;92.80;;;;;;5058997;28;20238;-92
2023/05/05 08:22:44;;;;;;;7.47;4.17;;;15.70;92.50;;;;;;5064668;28;20313;-92
2023/05/05 08:25:11;;;;;;;8.30;4.23;;;15.70;92.60;;;;;;5054735;28;20226;-92
2023/05/05 08:27:39;;;;;;;8.53;4.37;;;15.70;92.60;;;;;;5060637;28;20223;-93
2023/05/05 08:30:07;;;;;;;7.63;4.07;;;15.70;92.60;;;;;;5057988;28;20218;-93
2023/05/05 08:32:37;;;;;;;8.27;4.20;;;15.70;92.70;;;;;;5061259;28;20321;-92
2023/05/05 08:35:05;;;;;;;8.83;3.93;;;15.90;93.00;;;;;;5066239;28;20298;-92
2023/05/05 08:37:32;;;;;;;6.22;3.80;;;16.20;92.90;;;;;;5068610;28;20271;-93
2023/05/05 08:39:59;;;;;;;7.70;3.60;;;16.70;93.20;;;;;;5054930;28;20312;-92
2023/05/05 08:42:26;;;;;;;6.28;3.95;;;17.20;93.00;;;;;;5063886;28;20226;-92
2023/05/05 08:44:53;;;;;;;6.75;3.70;;;17.90;92.60;;;;;;5077840;28;20798;-92
2023/05/05 08:47:20;;;;;;;6.88;3.35;;;18.70;92.30;;;;;;5067004;28;20321;-91
2023/05/05 08:49:49;;;;;;;9.43;3.75;;;19.50;91.50;;;;;;5065213;28;20548;-93
2023/05/05 08:52:18;;;;;;;9.13;3.83;;;20.20;89.00;;;;;;5058722;28;20255;-93
2023/05/05 08:54:51;;;;;;;9.10;4.07;;;20.90;87.40;;;;;;5074501;28;20288;-92
2023/05/05 08:57:24;;;;;;;6.38;3.78;;;21.40;83.70;;;;;;5066691;28;20279;-92
2023/05/05 08:59:51;;;;;;;6.05;4.03;;;21.80;82.00;;;;;;5057699;28;20700;-89
2023/05/05 09:02:22;;;;;;;8.68;4.40;;;21.90;80.30;;;;;;5058513;28;20302;-90
2023/05/05 09:04:51;;;;;;;8.07;4.68;;;21.90;78.10;;;;;;5062490;28;20233;-90
2023/05/05 09:07:18;;;;;;;9.80;3.60;;;21.90;76.50;;;;;;5061293;28;20229;-89
2023/05/05 09:09:46;;;;;;;5.22;3.70;;;21.80;76.40;;;;;;5068477;28;20703;-93
2023/05/05 09:12:14;;;;;;;10.45;3.97;;;21.80;76.60;;;;;;5063898;28;20290;-93
2023/05/05 09:14:42;;;;;;;7.85;3.95;;;21.70;76.10;;;;;;5065439;28;20265;-93
2023/05/05 09:17:23;;;;;;;5.65;3.40;;;21.60;75.80;;;;;;5065293;28;20309;-93
2023/05/05 09:20:02;;;;;;;9.15;4.10;;;21.60;75.70;;;;;;5069716;28;20735;-95
2023/05/05 09:22:37;;;;;;;7.18;4.47;;;21.60;74.30;;;;;;5065968;28;20257;-92
2023/05/05 09:25:04;;;;;;;10.27;3.90;;;21.50;75.00;;;;;;5060849;28;20524;-93
2023/05/05 09:27:35;;;;;;;11.55;3.97;;;21.60;75.20;;;;;;5054712;28;20229;-92
2023/05/05 09:30:02;;;;;;;8.15;3.72;;;21.60;75.40;;;;;;5080045;28;20553;-93
2023/05/05 09:32:29;;;;;;;7.07;4.15;;;21.80;74.50;;;;;;5059860;28;20390;-92
2023/05/05 09:35:01;;;;;;;6.72;3.75;;;21.90;74.10;;;;;;5066636;28;20304;-93
2023/05/05 09:37:29;;;;;;;9.18;4.05;;;22.10;73.20;;;;;;5063381;28;20226;-92
2023/05/05 09:39:57;;;;;;;8.43;4.35;;;22.30;72.80;;;;;;5068031;28;20222;-93
2023/05/05 09:42:24;;;;;;;6.53;3.65;;;22.30;72.50;;;;;;5062298;28;20234;-93
2023/05/05 09:44:51;;;;;;;4.30;3.50;;;22.30;71.20;;;;;;5064920;28;20259;-92
2023/05/05 09:47:18;;;;;;;6.18;3.45;;;22.30;71.10;;;;;;5066989;28;20222;-92
2023/05/05 09:49:45;;;;;;;10.13;3.67;;;22.10;70.10;;;;;;5088691;28;20242;-92
2023/05/05 09:52:14;;;;;;;7.47;3.58;;;21.90;69.80;;;;;;5061765;28;20230;-93
2023/05/05 09:54:42;;;;;;;6.85;3.95;;;21.60;69.10;;;;;;5070296;28;20763;-92
2023/05/05 09:57:24;;;;;;;7.57;4.07;;;21.20;69.70;;;;;;5068026;28;20237;-93
2023/05/05 09:59:56;;;;;;;5.15;3.58;;;20.90;70.10;;;;;;5063098;28;20621;-92
2023/05/05 10:02:31;;;;;;;8.25;4.18;;;20.50;69.90;;;;;;5060991;28;20696;-93
2023/05/05 10:05:09;;;;;;;8.45;4.18;;;20.20;70.60;;;;;;5078660;28;20219;-93
2023/05/05 10:07:39;;;;;;;8.63;3.65;;;20.00;70.60;;;;;;5063788;28;20218;-93
2023/05/05 10:10:08;;;;;;;7.30;3.60;;;19.70;71.70;;;;;;5063714;28;20206;-92
2023/05/05 10:12:36;;;;;;;8.75;3.78;;;19.60;72.70;;;;;;5065234;28;20227;-93
2023/05/05 10:15:04;;;;;;;9.40;3.70;;;19.50;73.00;;;;;;5068205;28;20327;-92
2023/05/05 10:17:32;;;;;;;7.53;4.00;;;19.30;73.00;;;;;;5062258;28;20305;-92
2023/05/05 10:20:02;;;;;;;7.45;3.28;;;19.20;73.60;;;;;;5067991;28;20248;-92
2023/05/05 10:22:33;;;;;;;12.15;4.10;;;19.20;73.60;;;;;;5063413;28;20268;-92
2023/05/05 10:25:06;;;;;;;5.65;3.20;;;19.30;74.70;;;;;;5062795;28;20305;-91
2023/05/05 10:27:39;;;;;;;7.57;3.30;;;19.40;74.70;;;;;;5061240;28;20234;-93
2023/05/05 10:30:10;;;;;;;6.28;3.22;;;19.70;75.40;;;;;;5070456;28;20307;-93
2023/05/05 10:32:44;;;;;;;6.30;3.40;;;20.10;74.30;;;;;;5071821;28;20214;-93
2023/05/05 10:35:13;;;;;;;7.05;3.33;;;20.40;73.50;;;;;;5064631;28;20317;-93
2023/05/05 10:37:41;;;;;;;6.03;3.75;;;20.70;73.50;;;;;;5065076;28;20523;-92
2023/05/05 10:40:13;;;;;;;7.18;3.65;;;20.90;71.50;;;;;;5074429;28;20226;-94
2023/05/05 10:42:40;;;;;;;6.75;3.72;;;21.00;70.50;;;;;;5057550;28;20525;-93
2023/05/05 10:45:08;;;;;;;8.77;3.80;;;21.10;71.20;;;;;;5059923;28;20685;-94
2023/05/05 10:47:36;;;;;;;6.10;3.85;;;21.10;70.20;;;;;;5092551;28;20271;-93
2023/05/05 10:50:12;;;;;;;5.38;3.97;;;21.10;69.40;;;;;;5065633;28;20226;-93
2023/05/05 10:52:47;;;;;;;7.63;3.50;;;21.10;69.50;;;;;;5067852;28;20230;-94
2023/05/05 10:55:20;;;;;;;5.57;3.15;;;21.10;69.70;;;;;;5081677;28;20525;-94
2023/05/05 10:57:53;;;;;;;6.65;3.60;;;21.10;69.90;;;;;;5071637;28;20329;-93
2023/05/05 11:00:53;;;;;;;5.75;3.17;;;21.00;70.00;;;;;;5066799;28;20222;-94
2023/05/05 11:03:21;;;;;;;9.38;3.38;;;21.20;71.00;;;;;;5049316;28;21089;-94
2023/05/05 11:06:11;;;;;;;7.78;3.10;;;21.50;71.50;;;;;;5073737;28;20305;-93
2023/05/05 11:08:40;;;;;;;9.13;3.58;;;21.90;70.60;;;;;;5087010;28;20248;-93
2023/05/05 11:11:10;;;;;;;4.57;2.90;;;22.30;71.00;;;;;;5071246;28;20883;-94
2023/05/05 11:13:38;;;;;;;7.15;3.47;;;22.70;70.00;;;;;;5067271;28;20745;-93
2023/05/05 11:16:25;;;;;;;4.38;3.30;;;23.10;67.40;;;;;;5067342;28;20219;-94
2023/05/05 11:18:52;;;;;;;8.93;3.30;;;23.50;66.40;;;;;;5085135;28;20221;-93
2023/05/05 11:21:19;;;;;;;4.30;3.50;;;23.90;66.70;;;;;;5071031;28;20226;-94
2023/05/05 11:23:53;;;;;;;6.43;3.55;;;24.20;66.00;;;;;;5070272;28;20245;-94
2023/05/05 11:26:51;;;;;;;6.57;3.28;;;24.50;63.20;;;;;;5068412;28;20729;-94
2023/05/05 11:29:18;;;;;;;6.18;3.53;;;24.70;63.00;;;;;;5067199;28;20318;-94
2023/05/05 11:31:46;;;;;;;7.65;3.30;;;25.00;63.10;;;;;;5058091;28;20287;-94
2023/05/05 11:34:27;;;;;;;6.85;3.25;;;25.20;62.10;;;;;;5070059;28;20313;-93
2023/05/05 11:37:02;;;;;;;7.68;3.50;;;25.20;60.00;;;;;;5068402;28;20272;-93
2023/05/05 11:39:41;;;;;;;5.95;3.28;;;25.20;59.30;;;;;;5060695;28;20230;-93
2023/05/05 11:42:25;;;;;;;5.45;3.08;;;25.10;59.20;;;;;;5070155;28;20354;-93
2023/05/05 11:44:54;;;;;;;5.63;3.38;;;24.90;58.20;;;;;;5069845;28;21186;-94
2023/05/05 11:47:31;;;;;;;6.63;3.80;;;24.60;58.20;;;;;;5084052;28;20276;-89
2023/05/05 11:50:01;;;;;;;4.90;2.90;;;24.20;58.20;;;;;;5062917;28;20223;-93
2023/05/05 11:52:28;;;;;;;7.53;3.30;;;23.90;58.60;;;;;;5064517;28;21300;-95
2023/05/05 11:55:01;;;;;;;5.72;3.00;;;23.60;59.20;;;;;;5069609;28;21861;-92
2023/05/05 11:57:31;;;;;;;6.07;3.47;;;23.30;59.60;;;;;;5067242;28;20225;-93
2023/05/05 12:00:00;;;;;;;8.20;3.35;;;23.00;59.30;;;;;;5069179;28;20222;-93
2023/05/05 12:02:29;;;;;;;6.53;3.67;;;22.80;59.40;;;;;;5066074;28;20672;-93
2023/05/05 12:04:57;;;;;;;6.20;3.03;;;22.60;59.80;;;;;;5067589;28;20845;-93
2023/05/05 12:07:26;;;;;;;8.88;3.13;;;22.40;60.30;;;;;;5071256;28;20312;-92
2023/05/05 12:09:56;;;;;;;4.30;2.90;;;22.30;60.60;;;;;;5061039;28;20238;-92
2023/05/05 12:12:35;;;;;;;6.45;2.90;;;22.10;60.80;;;;;;5059757;28;20329;-92
2023/05/05 12:15:02;;;;;;;7.82;3.28;;;22.00;61.20;;;;;;5057831;28;20224;-92
2023/05/05 12:17:38;;;;;;;5.50;3.30;;;21.90;61.50;;;;;;5063165;28;20379;-91
2023/05/05 12:20:07;;;;;;;7.25;3.47;;;21.90;61.50;;;;;;5053394;28;20525;-92
2023/05/05 12:22:34;;;;;;;7.68;3.05;;;21.80;61.90;;;;;;5058148;28;20705;-92
2023/05/05 12:25:09;;;;;;;4.80;3.28;;;21.70;62.00;;;;;;5066769;28;20230;-92
2023/05/05 12:27:37;;;;;;;7.15;3.35;;;21.60;61.90;;;;;;5068568;28;20242;-94
2023/05/05 12:30:13;;;;;;;7.68;3.58;;;21.60;62.10;;;;;;5069275;28;20267;-94
2023/05/05 12:32:40;;;;;;;4.88;3.10;;;21.50;62.30;;;;;;5078747;28;20274;-93
2023/05/05 12:35:10;;;;;;;6.63;3.05;;;21.50;62.30;;;;;;5090920;28;22145;-93
2023/05/05 12:37:38;;;;;;;6.50;3.17;;;21.40;62.30;;;;;;5081852;28;20214;-92
2023/05/05 12:40:07;;;;;;;8.23;3.20;;;21.40;62.70;;;;;;5073009;28;20679;-91
2023/05/05 12:42:39;;;;;;;6.95;3.35;;;21.30;62.20;;;;;;5083205;28;20230;-93
2023/05/05 12:45:17;;;;;;;6.15;3.15;;;21.20;62.30;;;;;;5070924;28;20303;-93
2023/05/05 12:47:44;;;;;;;5.70;2.97;;;21.10;62.30;;;;;;5075079;28;20242;-93
2023/05/05 12:50:12;;;;;;;5.85;2.70;;;21.00;62.40;;;;;;5082555;28;20222;-93
2023/05/05 12:52:44;;;;;;;5.43;2.85;;;20.80;62.80;;;;;;5078464;28;20242;-93
2023/05/05 12:55:11;;;;;;;4.18;2.50;;;20.70;63.40;;;;;;5069622;28;20214;-92
2023/05/05 12:57:59;;;;;;;4.97;2.75;;;20.50;63.50;;;;;;5075239;28;20229;-93
2023/05/05 13:00:30;;;;;;;4.70;2.88;;;20.40;64.10;;;;;;5077510;28;20234;-93
2023/05/05 13:02:57;;;;;;;6.78;2.83;;;20.30;64.70;;;;;;5078727;28;20332;-93